CDT,Max TemperatureF,Mean TemperatureF,Min TemperatureF,Max Dew PointF,MeanDew PointF,Min DewpointF,Max Humidity, Mean Humidity, Min Humidity, Max Sea Level PressureIn, Mean Sea Level PressureIn, Min Sea Level PressureIn, Max VisibilityMiles, Mean VisibilityMiles, Min VisibilityMiles, Max Wind SpeedMPH, Mean Wind SpeedMPH, Max Gust SpeedMPH,PrecipitationIn, CloudCover, Events, WindDirDegrees
2012-10-1,81,68,57,60,55,48,99,63,32,29.97,29.91,29.87,10,10,10,23,9,29,0.00,1,Rain,350
2012-10-2,76,64,54,50,45,37,80,53,24,30.05,29.97,29.91,10,10,10,14,10,,0.00,0,,345
2012-10-3,83,67,51,55,51,48,94,62,33,29.95,29.90,29.84,10,10,10,21,9,28,0.00,0,,136
2012-10-4,69,64,59,61,49,44,91,63,53,30.17,30.09,29.90,10,10,10,29,13,34,0.00,6,,32
2012-10-5,64,58,50,47,43,38,63,58,47,30.20,30.14,30.08,10,10,10,17,14,22,0.00,6,,36
2012-10-6,50,48,45,37,32,27,64,55,42,30.35,30.27,30.21,10,10,10,22,14,23,0.00,7,,38
2012-10-7,53,47,39,34,31,26,74,58,37,30.36,30.30,30.23,10,10,10,12,7,,0.00,4,Rain,36
2012-10-8,65,48,32,41,35,30,94,61,32,30.25,30.13,29.99,10,10,10,17,5,24,0.00,0,,176
2012-10-9,82,65,48,54,47,41,94,60,25,30.04,29.89,29.80,10,10,10,18,10,29,0.00,0,,156
2012-10-10,64,58,51,50,45,37,71,61,50,30.22,30.13,30.05,10,10,10,22,9,33,0.00,6,,65
2012-10-11,81,70,59,68,61,53,95,79,61,30.12,30.06,29.98,10,10,9,18,8,24,0.00,6,,167
2012-10-12,85,75,65,73,68,64,100,82,55,30.14,30.05,29.98,10,10,7,22,9,26,0.00,6,Rain-Thunderstorm,145
2012-10-13,86,77,65,70,64,35,94,72,23,29.95,29.81,29.67,10,8,0,32,17,41,0.51,6,Rain-Hail-Thunderstorm,182
2012-10-14,81,68,55,52,47,41,82,54,24,30.12,30.06,29.85,10,6,2,18,8,24,0.00,0,,346
2012-10-15,84,66,48,50,47,42,95,73,24,30.11,30.05,29.88,10,6,1,17,2,22,0.10,0,,192
2012-10-16,88,72,56,59,53,48,77,56,26,29.87,29.67,29.50,10,10,10,18,11,23,0.00,0,,168
2012-10-17,79,68,57,59,41,27,84,42,20,29.86,29.62,29.41,10,10,8,24,12,33,0.00,0,,341
2012-10-18,70,55,40,34,29,24,70,38,18,30.06,29.98,29.87,10,10,10,15,4,18,0.00,0,,326
2012-10-19,77,60,44,37,30,26,59,36,17,30.04,29.95,29.83,10,10,10,14,3,,0.00,0,,213
2012-10-20,84,66,47,54,45,38,81,53,25,29.83,29.71,29.65,10,10,10,13,7,,0.00,0,,132
2012-10-21,95,76,56,66,58,49,100,65,21,29.74,29.68,29.63,10,10,8,21,10,29,0.00,0,,166
2012-10-22,81,74,64,66,63,58,99,74,46,29.93,29.82,29.73,10,10,10,30,13,34,0.01,2,Rain,169
2012-10-23,88,74,59,68,64,59,100,84,45,29.86,29.81,29.74,10,9,2,22,8,25,0.00,0,,155
2012-10-24,84,72,60,70,65,61,100,86,57,29.85,29.79,29.67,10,8,1,25,12,31,0.00,3,,153
2012-10-25,69,59,46,61,45,34,86,63,42,30.23,29.94,29.67,10,10,10,30,15,39,0.01,2,,10
2012-10-26,53,44,36,33,28,23,77,59,31,30.45,30.37,30.24,10,10,10,26,15,31,0.00,1,,15
2012-10-27,54,40,27,27,24,20,83,55,26,30.42,30.32,30.21,10,10,10,7,4,,0.00,0,,25
2012-10-28,62,46,31,30,27,24,76,48,27,30.32,30.26,30.18,10,5,1,8,3,,0.00,0,,142
2012-10-29,69,52,34,34,31,28,80,59,27,30.28,30.20,30.09,10,9,5,16,2,,0.00,0,,150
2012-10-30,79,58,38,41,36,32,76,51,25,30.08,29.99,29.90,10,10,10,10,5,,0.00,0,,191
2012-10-31,79,61,43,42,40,37,78,48,24,30.07,30.00,29.94,10,10,10,10,2,,0.00,0,,117